QFA6969 EDHI-EGLL
Flight info
| Callsign | QFA6969 |
|---|---|
| Flight time | N/A |
| Altitude | 40000 |
| Route | ELSOB2W ELSOB N125 SILQI N872 PAM L980 LOGAN |
| Aircraft | A388/J-SADE2E3FGHIJ3J4J5M1RWXY/LB1D1 |
Departure
| Time | 2026-04-22 11:02 |
|---|---|
| Airport | Hamburg-Finkenwerder Airport (EDHI) |
Arrival
| Time | N/A |
|---|---|
| Airport | London Heathrow Airport (EGLL) |
| Time | Latitude | Longitude | Altitude | Speed | Heading |
|---|---|---|---|---|---|
| 2026-04-22 10:51 | 53.53799 | 9.81833 | 31 ft | 0 kts | 105° |
| 2026-04-22 10:54 | 53.53799 | 9.81835 | 26 ft | 2 kts | 105° |
| 2026-04-22 10:54 | 53.53788 | 9.81899 | 29 ft | 10 kts | 105° |
| 2026-04-22 10:54 | 53.53763 | 9.82059 | 30 ft | 18 kts | 105° |
| 2026-04-22 10:54 | 53.53729 | 9.82277 | 26 ft | 16 kts | 105° |
| 2026-04-22 10:55 | 53.53693 | 9.82501 | 26 ft | 22 kts | 105° |
| 2026-04-22 10:55 | 53.53622 | 9.82725 | 27 ft | 17 kts | 144° |
| 2026-04-22 10:55 | 53.53525 | 9.82843 | 27 ft | 19 kts | 141° |
| 2026-04-22 10:55 | 53.53413 | 9.82994 | 27 ft | 18 kts | 141° |
| 2026-04-22 10:56 | 53.53356 | 9.83071 | 27 ft | 5 kts | 141° |
| 2026-04-22 10:56 | 53.53320 | 9.83127 | 27 ft | 4 kts | 116° |
| 2026-04-22 10:56 | 53.53316 | 9.83148 | 27 ft | 4 kts | 98° |
| 2026-04-22 10:56 | 53.53320 | 9.83192 | 27 ft | 5 kts | 61° |
| 2026-04-22 10:57 | 53.53358 | 9.83250 | 27 ft | 11 kts | 37° |
| 2026-04-22 10:57 | 53.53432 | 9.83351 | 27 ft | 15 kts | 43° |
| 2026-04-22 10:57 | 53.53515 | 9.83508 | 32 ft | 21 kts | 52° |
| 2026-04-22 10:57 | 53.53614 | 9.83725 | 31 ft | 25 kts | 52° |
| 2026-04-22 10:58 | 53.53729 | 9.83973 | 27 ft | 27 kts | 50° |
| 2026-04-22 10:58 | 53.53855 | 9.84228 | 29 ft | 29 kts | 50° |
| 2026-04-22 10:58 | 53.53985 | 9.84507 | 28 ft | 31 kts | 53° |
| 2026-04-22 10:58 | 53.54119 | 9.84804 | 29 ft | 32 kts | 53° |
| 2026-04-22 10:59 | 53.54189 | 9.84944 | 29 ft | 7 kts | 26° |
| 2026-04-22 10:59 | 53.54237 | 9.84966 | 29 ft | 9 kts | 12° |
| 2026-04-22 10:59 | 53.54277 | 9.85003 | 30 ft | 7 kts | 51° |
| 2026-04-22 10:59 | 53.54287 | 9.85059 | 31 ft | 4 kts | 99° |
| 2026-04-22 11:00 | 53.54277 | 9.85096 | 32 ft | 3 kts | 133° |
| 2026-04-22 11:00 | 53.54265 | 9.85112 | 32 ft | 4 kts | 156° |
| 2026-04-22 11:00 | 53.54240 | 9.85117 | 32 ft | 6 kts | 191° |
| 2026-04-22 11:00 | 53.54206 | 9.85064 | 31 ft | 8 kts | 258° |
| 2026-04-22 11:01 | 53.54201 | 9.84987 | 30 ft | 4 kts | 247° |
| 2026-04-22 11:01 | 53.54186 | 9.84946 | 29 ft | 3 kts | 235° |
| 2026-04-22 11:01 | 53.54185 | 9.84943 | 29 ft | 0 kts | 235° |
| 2026-04-22 11:02 | 53.54036 | 9.84630 | 28 ft | 83 kts | 233° |
| 2026-04-22 11:02 | 53.53514 | 9.83518 | 28 ft | 151 kts | 233° |
| 2026-04-22 11:02 | 53.52830 | 9.82126 | 667 ft | 152 kts | 232° |
| 2026-04-22 11:02 | 53.52155 | 9.80717 | 1336 ft | 161 kts | 235° |
| 2026-04-22 11:03 | 53.51466 | 9.79210 | 1992 ft | 168 kts | 235° |
| 2026-04-22 11:03 | 53.50717 | 9.77571 | 2434 ft | 185 kts | 235° |
| 2026-04-22 11:03 | 53.49880 | 9.75767 | 2704 ft | 210 kts | 234° |
| 2026-04-22 11:03 | 53.48923 | 9.73734 | 3361 ft | 235 kts | 233° |
| 2026-04-22 11:04 | 53.47838 | 9.71490 | 4091 ft | 259 kts | 232° |
| 2026-04-22 11:04 | 53.46683 | 9.69126 | 4990 ft | 269 kts | 233° |
| 2026-04-22 11:04 | 53.45795 | 9.66322 | 6039 ft | 276 kts | 257° |
| 2026-04-22 11:04 | 53.45737 | 9.63112 | 7071 ft | 279 kts | 284° |
| 2026-04-22 11:05 | 53.46537 | 9.60187 | 8155 ft | 276 kts | 311° |
| 2026-04-22 11:05 | 53.48010 | 9.58180 | 9270 ft | 274 kts | 337° |
| 2026-04-22 11:05 | 53.49846 | 9.57476 | 10339 ft | 273 kts | 1° |
| 2026-04-22 11:05 | 53.51785 | 9.57566 | 11029 ft | 288 kts | 1° |
| 2026-04-22 11:06 | 53.53841 | 9.56881 | 11412 ft | 317 kts | 339° |
| 2026-04-22 11:06 | 53.55704 | 9.54707 | 11957 ft | 337 kts | 316° |
| 2026-04-22 11:06 | 53.56977 | 9.51351 | 12864 ft | 347 kts | 294° |
| 2026-04-22 11:06 | 53.57461 | 9.47380 | 13735 ft | 358 kts | 274° |
| 2026-04-22 11:07 | 53.57083 | 9.43204 | 14552 ft | 368 kts | 253° |
| 2026-04-22 11:07 | 53.55853 | 9.39385 | 15300 ft | 376 kts | 232° |
| 2026-04-22 11:07 | 53.54010 | 9.36196 | 15990 ft | 382 kts | 225° |
| 2026-04-22 11:07 | 53.52183 | 9.32907 | 16661 ft | 388 kts | 230° |
| 2026-04-22 11:08 | 53.50465 | 9.29356 | 17365 ft | 392 kts | 233° |
| 2026-04-22 11:08 | 53.48869 | 9.25605 | 18075 ft | 397 kts | 237° |
| 2026-04-22 11:08 | 53.47347 | 9.21695 | 18755 ft | 402 kts | 239° |
| 2026-04-22 11:08 | 53.45856 | 9.17686 | 19361 ft | 407 kts | 239° |
| 2026-04-22 11:09 | 53.44365 | 9.13618 | 19976 ft | 411 kts | 240° |
| 2026-04-22 11:09 | 53.43373 | 9.10907 | 20372 ft | 414 kts | 240° |
| 2026-04-22 11:09 | 53.42202 | 9.07713 | 20816 ft | 417 kts | 240° |
| 2026-04-22 11:10 | 53.40713 | 9.03666 | 21381 ft | 421 kts | 240° |
| 2026-04-22 11:10 | 53.39166 | 8.99473 | 21939 ft | 426 kts | 239° |
| 2026-04-22 11:10 | 53.37593 | 8.95223 | 22503 ft | 431 kts | 239° |
| 2026-04-22 11:10 | 53.35997 | 8.90921 | 23079 ft | 435 kts | 239° |
| 2026-04-22 11:11 | 53.34985 | 8.88029 | 23443 ft | 437 kts | 244° |